createdAt,value
2019-01-18T00:01:01.403Z,6.53
2019-01-18T00:03:28.585Z,5.90
2019-01-18T00:05:55.763Z,5.85
2019-01-18T00:08:22.782Z,6.30
2019-01-18T00:10:49.964Z,6.40
2019-01-18T00:13:17.667Z,5.40
2019-01-18T00:15:44.793Z,5.22
2019-01-18T00:18:12.447Z,4.40
2019-01-18T00:20:39.708Z,3.90
2019-01-18T00:23:06.836Z,3.15
2019-01-18T00:25:33.899Z,3.22
2019-01-18T00:28:00.904Z,2.35
2019-01-18T00:30:27.598Z,3.02
2019-01-18T00:32:54.591Z,2.98
2019-01-18T00:35:22.411Z,2.60
2019-01-18T00:37:50.179Z,3.60
2019-01-18T00:40:17.829Z,2.85
2019-01-18T00:42:44.609Z,2.50
2019-01-18T00:45:13.242Z,2.33
2019-01-18T00:47:40.900Z,2.08
2019-01-18T00:50:08.669Z,2.40
2019-01-18T00:52:35.733Z,2.65
2019-01-18T00:55:03.398Z,2.55
2019-01-18T00:57:30.492Z,2.70
2019-01-18T00:59:58.213Z,2.87
2019-01-18T01:02:25.134Z,2.83
2019-01-18T01:04:52.276Z,2.50
2019-01-18T01:07:18.854Z,2.52
2019-01-18T01:09:46.595Z,2.10
2019-01-18T01:12:15.284Z,1.92
2019-01-18T01:14:42.958Z,1.90
2019-01-18T01:17:10.104Z,1.75
2019-01-18T01:19:37.756Z,1.52
2019-01-18T01:22:05.532Z,1.50
2019-01-18T01:24:32.645Z,1.55
2019-01-18T01:26:59.629Z,1.20
2019-01-18T01:29:26.620Z,1.65
2019-01-18T01:31:53.683Z,1.40
2019-01-18T01:34:20.735Z,1.40
2019-01-18T01:36:48.428Z,1.55
2019-01-18T01:39:16.280Z,1.10
2019-01-18T01:41:43.281Z,1.17
2019-01-18T01:44:11.017Z,1.40
2019-01-18T01:46:38.770Z,1.30
2019-01-18T01:49:05.821Z,1.42
2019-01-18T01:51:33.587Z,1.40
2019-01-18T01:54:01.337Z,1.80
2019-01-18T01:56:29.021Z,1.50
2019-01-18T01:58:55.897Z,1.80
2019-01-18T02:01:22.921Z,1.80
2019-01-18T02:03:49.949Z,1.40
2019-01-18T02:06:17.596Z,1.57
2019-01-18T02:08:44.663Z,1.65
2019-01-18T02:11:12.311Z,1.82
2019-01-18T02:13:40.195Z,1.60
2019-01-18T02:16:07.136Z,1.67
2019-01-18T02:18:34.117Z,1.85
2019-01-18T02:21:01.183Z,1.90
2019-01-18T02:23:28.247Z,1.72
2019-01-18T02:25:55.925Z,2.40
2019-01-18T02:28:23.699Z,2.00
2019-01-18T02:30:50.707Z,1.98
2019-01-18T02:33:17.770Z,2.27
2019-01-18T02:35:44.834Z,2.90
2019-01-18T02:38:12.523Z,2.85
2019-01-18T02:40:40.692Z,2.72
2019-01-18T02:43:08.352Z,3.25
2019-01-18T02:45:36.062Z,2.72
2019-01-18T02:48:03.144Z,2.70
2019-01-18T02:50:30.212Z,2.50
2019-01-18T02:52:57.225Z,2.27
2019-01-18T02:55:29.011Z,2.70
2019-01-18T02:57:54.319Z,2.25
2019-01-18T03:00:21.374Z,2.45
2019-01-18T03:02:49.146Z,2.65
2019-01-18T03:05:16.141Z,2.50
2019-01-18T03:07:42.748Z,2.15
2019-01-18T03:10:10.477Z,2.15
2019-01-18T03:12:37.460Z,2.02
2019-01-18T03:15:04.547Z,1.95
2019-01-18T03:17:31.987Z,2.00
2019-01-18T03:19:59.095Z,1.57
2019-01-18T03:22:25.921Z,2.10
2019-01-18T03:24:53.777Z,2.62
2019-01-18T03:27:21.470Z,3.10
2019-01-18T03:29:49.230Z,2.20
2019-01-18T03:32:16.344Z,1.80
2019-01-18T03:34:43.372Z,2.40
2019-01-18T03:37:10.496Z,1.87
2019-01-18T03:39:38.232Z,2.40
2019-01-18T03:42:05.232Z,3.35
2019-01-18T03:44:32.396Z,3.08
2019-01-18T03:47:00.082Z,2.27
2019-01-18T03:49:27.598Z,2.33
2019-01-18T03:51:55.420Z,2.02
2019-01-18T03:54:23.093Z,1.80
2019-01-18T03:56:50.856Z,2.17
2019-01-18T03:59:17.941Z,1.82
2019-01-18T04:01:44.989Z,1.77
2019-01-18T04:04:11.993Z,2.85
2019-01-18T04:06:39.737Z,2.30
2019-01-18T04:09:07.504Z,2.52
2019-01-18T04:11:35.176Z,2.65
2019-01-18T04:14:02.276Z,2.12
2019-01-18T04:16:29.992Z,2.17
2019-01-18T04:18:57.637Z,1.75
2019-01-18T04:21:24.816Z,1.50
2019-01-18T04:23:52.573Z,1.30
2019-01-18T04:26:20.225Z,1.20
2019-01-18T04:28:47.638Z,1.30
2019-01-18T04:31:15.364Z,1.30
2019-01-18T04:33:43.009Z,1.60
2019-01-18T04:36:10.115Z,1.95
2019-01-18T04:38:36.892Z,1.77
2019-01-18T04:41:03.899Z,1.80
2019-01-18T04:43:30.942Z,1.85
2019-01-18T04:45:58.673Z,1.90
2019-01-18T04:48:25.660Z,2.00
2019-01-18T04:50:53.487Z,2.08
2019-01-18T04:53:21.240Z,2.12
2019-01-18T04:55:47.793Z,2.20
2019-01-18T04:58:15.449Z,2.00
2019-01-18T05:00:42.446Z,2.35
2019-01-18T05:03:09.561Z,2.27
2019-01-18T05:05:36.656Z,2.17
2019-01-18T05:08:04.333Z,1.50
2019-01-18T05:10:32.007Z,2.00
2019-01-18T05:12:59.063Z,2.10
2019-01-18T05:15:26.723Z,1.82
2019-01-18T05:17:53.867Z,1.80
2019-01-18T05:20:21.537Z,2.02
2019-01-18T05:22:48.553Z,2.22
2019-01-18T05:25:16.226Z,2.65
2019-01-18T05:27:43.908Z,2.20
2019-01-18T05:30:11.680Z,1.92
2019-01-18T05:32:38.768Z,1.95
2019-01-18T05:35:06.477Z,2.08
2019-01-18T05:37:33.481Z,1.80
2019-01-18T05:40:01.178Z,1.72
2019-01-18T05:42:28.149Z,2.00
2019-01-18T05:44:55.913Z,2.15
2019-01-18T05:47:23.022Z,2.00
2019-01-18T05:49:50.053Z,2.17
2019-01-18T05:52:17.177Z,1.98
2019-01-18T05:54:44.908Z,2.25
2019-01-18T05:57:11.948Z,2.37
2019-01-18T05:59:39.010Z,2.50
2019-01-18T06:02:06.185Z,2.52
2019-01-18T06:04:32.838Z,2.12
2019-01-18T06:07:02.678Z,2.20
2019-01-18T06:09:29.473Z,1.95
2019-01-18T06:11:56.141Z,2.45
2019-01-18T06:14:23.429Z,2.00
2019-01-18T06:16:50.107Z,2.30
2019-01-18T06:19:18.559Z,2.10
2019-01-18T06:21:45.513Z,2.42
2019-01-18T06:24:15.735Z,2.40
2019-01-18T06:26:43.242Z,3.52
2019-01-18T06:29:18.852Z,3.65
2019-01-18T06:31:46.045Z,3.08
2019-01-18T06:34:12.691Z,3.25
2019-01-18T06:36:39.774Z,2.58
2019-01-18T06:39:06.933Z,1.75
2019-01-18T06:41:33.525Z,2.50
2019-01-18T06:44:00.552Z,2.80
2019-01-18T06:46:28.391Z,2.35
2019-01-18T06:48:55.021Z,2.65
2019-01-18T06:51:22.100Z,3.02
2019-01-18T06:53:48.730Z,2.37
2019-01-18T06:56:15.711Z,2.47
2019-01-18T06:58:42.286Z,2.30
2019-01-18T07:01:10.126Z,2.77
2019-01-18T07:03:36.761Z,2.50
2019-01-18T07:06:03.900Z,2.47
2019-01-18T07:08:30.951Z,2.25
2019-01-18T07:10:58.000Z,2.30
2019-01-18T07:13:24.672Z,2.67
2019-01-18T07:15:51.273Z,2.72
2019-01-18T07:18:17.871Z,2.77
2019-01-18T07:20:44.940Z,2.95
2019-01-18T07:23:11.999Z,2.98
2019-01-18T07:25:39.051Z,3.00
2019-01-18T07:28:05.759Z,3.25
2019-01-18T07:30:32.849Z,2.67
2019-01-18T07:33:00.429Z,3.10
2019-01-18T07:35:27.143Z,2.40
2019-01-18T07:37:54.208Z,2.90
2019-01-18T07:40:20.847Z,3.00
2019-01-18T07:42:47.488Z,3.17
2019-01-18T07:45:15.192Z,3.30
2019-01-18T07:47:42.236Z,2.58
2019-01-18T07:50:08.904Z,2.65
2019-01-18T07:52:35.972Z,2.75
2019-01-18T07:55:03.429Z,2.75
2019-01-18T07:57:30.371Z,3.98
2019-01-18T07:59:58.024Z,6.20
2019-01-18T08:02:25.133Z,3.83
2019-01-18T08:04:52.138Z,3.02
2019-01-18T08:07:19.544Z,3.90
2019-01-18T08:09:46.225Z,3.83
2019-01-18T08:12:13.336Z,3.87
2019-01-18T08:14:40.434Z,3.75
2019-01-18T08:17:08.010Z,4.28
2019-01-18T08:19:35.146Z,4.35
2019-01-18T08:22:02.242Z,3.65
2019-01-18T08:24:29.364Z,3.42
2019-01-18T08:26:56.029Z,4.20
2019-01-18T08:29:23.612Z,4.15
2019-01-18T08:31:50.268Z,4.42
2019-01-18T08:34:16.879Z,3.67
2019-01-18T08:36:43.990Z,3.83
2019-01-18T08:39:10.609Z,3.87
2019-01-18T08:41:37.644Z,3.65
2019-01-18T08:44:04.318Z,3.90
2019-01-18T08:46:31.407Z,4.10
2019-01-18T08:48:58.555Z,4.58
2019-01-18T08:51:25.308Z,5.12
2019-01-18T08:53:52.303Z,5.80
2019-01-18T08:56:19.024Z,5.03
2019-01-18T08:58:46.213Z,6.15
2019-01-18T09:01:14.140Z,6.75
2019-01-18T09:03:40.826Z,7.03
2019-01-18T09:06:07.585Z,8.28
2019-01-18T09:08:34.693Z,6.80
2019-01-18T09:11:01.737Z,7.00
2019-01-18T09:13:28.896Z,7.60
2019-01-18T09:15:55.620Z,6.72
2019-01-18T09:18:22.679Z,5.80
2019-01-18T09:20:49.911Z,5.33
2019-01-18T09:23:16.571Z,5.37
2019-01-18T09:25:43.276Z,4.78
2019-01-18T09:28:10.372Z,4.37
2019-01-18T09:30:37.214Z,5.50
2019-01-18T09:33:04.309Z,2.77
2019-01-18T09:35:32.106Z,3.33
2019-01-18T09:37:59.174Z,4.60
2019-01-18T09:40:25.783Z,3.75
2019-01-18T09:42:52.911Z,3.37
2019-01-18T09:45:19.518Z,3.40
2019-01-18T09:47:46.108Z,3.83
2019-01-18T09:50:13.127Z,2.67
2019-01-18T09:52:39.734Z,4.17
2019-01-18T09:55:06.336Z,4.67
2019-01-18T09:57:33.257Z,4.17
2019-01-18T09:59:59.868Z,4.08
2019-01-18T10:02:26.687Z,4.22
2019-01-18T10:04:53.770Z,4.03
2019-01-18T10:07:20.993Z,5.10
2019-01-18T10:09:48.047Z,4.50
2019-01-18T10:12:14.748Z,4.78
2019-01-18T10:14:41.351Z,4.12
2019-01-18T10:17:08.425Z,3.87
2019-01-18T10:19:35.459Z,4.33
2019-01-18T10:22:02.529Z,4.20
2019-01-18T10:24:29.095Z,4.58
2019-01-18T10:26:56.201Z,4.28
2019-01-18T10:29:28.142Z,4.37
2019-01-18T10:31:56.067Z,4.67
2019-01-18T10:34:20.601Z,4.87
2019-01-18T10:36:47.662Z,5.42
2019-01-18T10:39:15.357Z,5.10
2019-01-18T10:41:43.131Z,5.75
2019-01-18T10:44:09.762Z,5.97
2019-01-18T10:46:37.283Z,5.42
2019-01-18T10:49:03.919Z,5.80
2019-01-18T10:51:30.973Z,6.15
2019-01-18T10:53:57.671Z,5.90
2019-01-18T10:56:24.738Z,5.67
2019-01-18T10:58:51.863Z,5.40
2019-01-18T11:01:20.038Z,5.75
2019-01-18T11:03:47.250Z,5.22
2019-01-18T11:06:13.895Z,4.47
2019-01-18T11:08:41.044Z,5.08
2019-01-18T11:11:08.263Z,5.40
2019-01-18T11:13:35.404Z,5.40
2019-01-18T11:16:02.497Z,5.67
2019-01-18T11:18:29.102Z,3.70
2019-01-18T11:20:55.706Z,5.00
2019-01-18T11:23:22.807Z,5.45
2019-01-18T11:25:49.377Z,5.47
2019-01-18T11:28:16.020Z,5.10
2019-01-18T11:30:43.129Z,5.67
2019-01-18T11:33:10.167Z,5.20
2019-01-18T11:35:37.235Z,4.50
2019-01-18T11:38:03.903Z,5.10
2019-01-18T11:40:30.592Z,5.37
2019-01-18T11:42:57.645Z,5.03
2019-01-18T11:45:24.292Z,4.40
2019-01-18T11:47:51.352Z,4.35
2019-01-18T11:50:17.953Z,4.00
2019-01-18T11:52:44.612Z,4.35
2019-01-18T11:55:11.661Z,4.00
2019-01-18T11:57:38.238Z,4.45
2019-01-18T12:00:05.238Z,4.03
2019-01-18T12:02:32.308Z,4.47
2019-01-18T12:04:59.042Z,4.75
2019-01-18T12:07:25.706Z,4.58
2019-01-18T12:09:52.799Z,5.50
2019-01-18T12:12:19.441Z,4.40
2019-01-18T12:14:46.086Z,4.65
2019-01-18T12:17:13.702Z,3.80
2019-01-18T12:19:40.476Z,3.20
2019-01-18T12:22:07.210Z,3.60
2019-01-18T12:24:34.306Z,3.80
2019-01-18T12:27:00.902Z,3.87
2019-01-18T12:29:27.551Z,4.67
2019-01-18T12:31:54.165Z,3.85
2019-01-18T12:34:20.743Z,4.00
2019-01-18T12:36:47.863Z,4.62
2019-01-18T12:39:14.686Z,4.62
2019-01-18T12:41:41.435Z,4.22
2019-01-18T12:44:08.502Z,5.92
2019-01-18T12:46:35.583Z,4.40
2019-01-18T12:49:02.157Z,5.22
2019-01-18T12:51:29.275Z,4.60
2019-01-18T12:53:56.005Z,5.10
2019-01-18T12:56:22.652Z,4.80
2019-01-18T12:58:49.665Z,4.95
2019-01-18T13:01:16.843Z,5.50
2019-01-18T13:03:44.556Z,4.47
2019-01-18T13:06:12.089Z,5.05
2019-01-18T13:08:38.820Z,5.17
2019-01-18T13:11:05.856Z,5.17
2019-01-18T13:13:32.491Z,5.12
2019-01-18T13:15:59.159Z,5.20
2019-01-18T13:18:25.811Z,5.65
2019-01-18T13:20:52.479Z,4.85
2019-01-18T13:23:19.750Z,6.10
2019-01-18T13:25:46.447Z,5.95
2019-01-18T13:28:13.133Z,6.40
2019-01-18T13:30:39.834Z,6.03
2019-01-18T13:33:06.892Z,4.75
2019-01-18T13:35:33.689Z,6.08
2019-01-18T13:38:00.372Z,6.35
2019-01-18T13:40:28.125Z,6.05
2019-01-18T13:42:54.852Z,6.70
2019-01-18T13:45:24.443Z,5.45
2019-01-18T13:47:51.048Z,6.42
2019-01-18T13:50:18.142Z,6.35
2019-01-18T13:52:44.864Z,6.55
2019-01-18T13:55:11.965Z,6.65
2019-01-18T13:57:39.087Z,6.37
2019-01-18T14:00:05.747Z,6.00
2019-01-18T14:02:32.781Z,6.25
2019-01-18T14:04:59.913Z,6.72
2019-01-18T14:07:26.544Z,4.65
2019-01-18T14:09:53.699Z,6.42
2019-01-18T14:12:20.310Z,5.80
2019-01-18T14:14:47.006Z,6.60
2019-01-18T14:17:14.168Z,6.50
2019-01-18T14:19:40.875Z,6.58
2019-01-18T14:22:08.485Z,6.35
2019-01-18T14:24:35.585Z,6.15
2019-01-18T14:27:03.641Z,6.37
2019-01-18T14:29:30.762Z,6.25
2019-01-18T14:31:57.554Z,6.75
2019-01-18T14:34:26.638Z,6.03
2019-01-18T14:36:53.332Z,6.08
2019-01-18T14:39:20.545Z,5.55
2019-01-18T14:41:47.262Z,6.45
2019-01-18T14:44:14.316Z,6.72
2019-01-18T14:46:41.057Z,5.87
2019-01-18T14:49:08.133Z,5.85
2019-01-18T14:51:34.816Z,6.12
2019-01-18T14:54:02.062Z,6.25
2019-01-18T14:56:29.165Z,6.78
2019-01-18T14:58:56.216Z,5.53
2019-01-18T15:01:23.336Z,5.15
2019-01-18T15:03:54.082Z,5.08
2019-01-18T15:06:18.386Z,5.17
2019-01-18T15:08:45.505Z,4.45
2019-01-18T15:11:12.584Z,5.15
2019-01-18T15:13:39.236Z,5.33
2019-01-18T15:16:05.973Z,4.58
2019-01-18T15:18:32.679Z,5.40
2019-01-18T15:20:59.756Z,5.17
2019-01-18T15:23:26.902Z,5.83
2019-01-18T15:25:53.616Z,6.62
2019-01-18T15:28:20.245Z,3.80
2019-01-18T15:30:47.371Z,4.67
2019-01-18T15:33:13.984Z,4.58
2019-01-18T15:35:40.566Z,4.50
2019-01-18T15:38:08.367Z,4.42
2019-01-18T15:40:35.550Z,4.85
2019-01-18T15:43:02.666Z,4.58
2019-01-18T15:45:29.449Z,4.97
2019-01-18T15:47:56.133Z,5.03
2019-01-18T15:50:22.844Z,5.05
2019-01-18T15:52:50.038Z,5.35
2019-01-18T15:55:16.703Z,4.47
2019-01-18T15:57:43.370Z,4.28
2019-01-18T16:00:10.391Z,4.58
2019-01-18T16:02:37.029Z,4.95
2019-01-18T16:05:04.100Z,4.55
2019-01-18T16:07:31.124Z,4.47
2019-01-18T16:09:58.248Z,4.35
2019-01-18T16:12:25.291Z,4.22
2019-01-18T16:14:52.245Z,4.50
2019-01-18T16:17:19.436Z,4.60
2019-01-18T16:19:47.203Z,3.80
2019-01-18T16:22:15.088Z,4.42
2019-01-18T16:24:41.720Z,4.78
2019-01-18T16:27:08.577Z,4.67
2019-01-18T16:29:41.666Z,3.12
2019-01-18T16:32:08.291Z,4.25
2019-01-18T16:34:35.364Z,4.55
2019-01-18T16:37:02.471Z,4.45
2019-01-18T16:39:29.772Z,4.62
2019-01-18T16:41:56.385Z,4.45
2019-01-18T16:44:23.538Z,4.37
2019-01-18T16:46:50.593Z,4.95
2019-01-18T16:49:17.259Z,5.20
2019-01-18T16:51:44.225Z,4.30
2019-01-18T16:54:10.905Z,4.60
2019-01-18T16:56:38.004Z,3.83
2019-01-18T16:59:05.169Z,5.00
2019-01-18T17:01:31.880Z,5.35
2019-01-18T17:03:58.564Z,6.53
2019-01-18T17:06:25.292Z,7.03
2019-01-18T17:08:52.428Z,6.97
2019-01-18T17:11:19.115Z,8.28
2019-01-18T17:13:46.382Z,8.03
2019-01-18T17:16:13.025Z,8.45
2019-01-18T17:18:39.718Z,8.10
2019-01-18T17:21:06.826Z,7.97
2019-01-18T17:23:33.904Z,8.28
2019-01-18T17:26:00.926Z,9.10
2019-01-18T17:28:27.744Z,9.75
2019-01-18T17:30:54.820Z,10.08
2019-01-18T17:33:21.865Z,10.18
2019-01-18T17:35:48.606Z,8.80
2019-01-18T17:38:15.294Z,9.63
2019-01-18T17:40:42.402Z,9.98
2019-01-18T17:43:09.177Z,10.68
2019-01-18T17:45:36.654Z,11.75
2019-01-18T17:48:03.676Z,12.88
2019-01-18T17:50:30.366Z,13.20
2019-01-18T17:52:57.061Z,13.13
2019-01-18T17:55:24.949Z,13.95
2019-01-18T17:57:51.663Z,13.43
2019-01-18T18:00:18.784Z,12.82
2019-01-18T18:02:45.960Z,13.32
2019-01-18T18:05:12.645Z,12.23
2019-01-18T18:07:39.915Z,11.35
2019-01-18T18:10:06.595Z,12.70
2019-01-18T18:12:33.695Z,10.30
2019-01-18T18:15:00.455Z,11.22
2019-01-18T18:17:27.179Z,11.20
2019-01-18T18:19:54.683Z,10.35
2019-01-18T18:22:21.806Z,11.43
2019-01-18T18:24:48.835Z,9.88
2019-01-18T18:27:15.604Z,10.53
2019-01-18T18:29:42.349Z,10.90
2019-01-18T18:32:09.008Z,10.98
2019-01-18T18:34:36.153Z,11.25
2019-01-18T18:37:02.884Z,12.53
2019-01-18T18:39:31.027Z,10.93
2019-01-18T18:41:57.684Z,10.63
2019-01-18T18:44:24.348Z,10.18
2019-01-18T18:46:51.112Z,10.58
2019-01-18T18:49:20.174Z,9.85
2019-01-18T18:51:50.426Z,9.95
2019-01-18T18:54:18.147Z,8.93
2019-01-18T18:56:45.080Z,10.43
2019-01-18T18:59:11.754Z,10.13
2019-01-18T19:01:38.472Z,10.50
2019-01-18T19:04:05.166Z,11.40
2019-01-18T19:06:31.903Z,15.23
2019-01-18T19:08:59.035Z,16.15
2019-01-18T19:11:25.764Z,17.30
2019-01-18T19:13:52.428Z,17.57
2019-01-18T19:16:19.505Z,17.48
2019-01-18T19:18:46.578Z,16.50
2019-01-18T19:21:14.407Z,15.13
2019-01-18T19:23:41.591Z,14.35
2019-01-18T19:26:08.294Z,15.98
2019-01-18T19:28:35.383Z,15.58
2019-01-18T19:31:02.506Z,16.70
2019-01-18T19:33:29.555Z,17.42
2019-01-18T19:35:56.256Z,18.02
2019-01-18T19:38:23.360Z,19.05
2019-01-18T19:40:50.915Z,17.90
2019-01-18T19:43:17.974Z,16.52
2019-01-18T19:45:44.703Z,15.88
2019-01-18T19:48:11.927Z,14.85
2019-01-18T19:50:39.048Z,15.40
2019-01-18T19:53:05.817Z,14.73
2019-01-18T19:55:32.458Z,16.57
2019-01-18T19:57:59.653Z,16.67
2019-01-18T20:00:26.801Z,18.07
2019-01-18T20:02:53.559Z,17.77
2019-01-18T20:05:21.888Z,15.80
2019-01-18T20:07:49.342Z,19.67
2019-01-18T20:10:16.526Z,23.02
2019-01-18T20:12:43.249Z,31.85
2019-01-18T20:15:10.075Z,33.15
2019-01-18T20:17:36.774Z,31.77
2019-01-18T20:20:03.931Z,25.57
2019-01-18T20:22:31.230Z,26.10
2019-01-18T20:24:57.923Z,23.57
2019-01-18T20:27:24.646Z,20.68
2019-01-18T20:29:51.336Z,21.48
2019-01-18T20:32:18.568Z,19.98
2019-01-18T20:34:45.831Z,19.65
2019-01-18T20:37:12.908Z,16.75
2019-01-18T20:39:40.038Z,18.00
2019-01-18T20:42:07.223Z,21.23
2019-01-18T20:44:33.958Z,22.10
2019-01-18T20:47:00.611Z,21.00
2019-01-18T20:49:27.413Z,22.17
2019-01-18T20:51:54.067Z,23.18
2019-01-18T20:54:21.820Z,18.75
2019-01-18T20:56:49.635Z,17.23
2019-01-18T20:59:16.945Z,15.95
2019-01-18T21:01:44.498Z,16.48
2019-01-18T21:04:11.240Z,16.32
2019-01-18T21:06:37.979Z,15.80
2019-01-18T21:09:05.411Z,15.83
2019-01-18T21:11:32.787Z,15.75
2019-01-18T21:14:01.822Z,15.03
2019-01-18T21:16:28.626Z,17.15
2019-01-18T21:18:55.853Z,16.45
2019-01-18T21:21:23.552Z,17.17
2019-01-18T21:23:51.282Z,17.00
2019-01-18T21:26:18.475Z,18.95
2019-01-18T21:28:45.140Z,18.25
2019-01-18T21:31:12.146Z,17.98
2019-01-18T21:33:39.295Z,17.40
2019-01-18T21:36:06.627Z,18.70
2019-01-18T21:38:33.579Z,17.98
2019-01-18T21:41:01.048Z,18.73
2019-01-18T21:43:28.326Z,21.30
2019-01-18T21:45:55.061Z,20.37
2019-01-18T21:48:22.135Z,19.92
2019-01-18T21:50:51.158Z,19.65
2019-01-18T21:53:18.625Z,18.45
2019-01-18T21:55:45.846Z,17.00
2019-01-18T21:58:14.427Z,16.57
2019-01-18T22:00:41.635Z,15.40
2019-01-18T22:03:09.011Z,15.75
2019-01-18T22:05:35.778Z,16.17
2019-01-18T22:08:02.514Z,15.23
2019-01-18T22:10:34.514Z,16.45
2019-01-18T22:13:02.601Z,17.35
2019-01-18T22:15:29.969Z,16.40
2019-01-18T22:17:56.755Z,17.52
2019-01-18T22:20:25.172Z,17.42
2019-01-18T22:22:52.560Z,17.70
2019-01-18T22:25:19.398Z,18.37
2019-01-18T22:27:46.447Z,18.50
2019-01-18T22:30:13.309Z,18.85
2019-01-18T22:32:40.403Z,18.73
2019-01-18T22:35:07.511Z,16.15
2019-01-18T22:37:34.381Z,18.65
2019-01-18T22:40:01.423Z,18.15
2019-01-18T22:42:28.183Z,17.45
2019-01-18T22:44:55.300Z,17.77
2019-01-18T22:47:23.102Z,19.25
2019-01-18T22:49:50.865Z,18.60
2019-01-18T22:52:17.876Z,18.60
2019-01-18T22:54:45.718Z,20.57
2019-01-18T22:57:12.835Z,19.48
2019-01-18T22:59:39.861Z,19.25
2019-01-18T23:02:06.990Z,20.20
2019-01-18T23:04:33.790Z,21.07
2019-01-18T23:07:00.440Z,20.45
2019-01-18T23:09:28.152Z,20.62
2019-01-18T23:11:54.894Z,20.27
2019-01-18T23:14:21.638Z,20.12
2019-01-18T23:16:48.757Z,20.48
2019-01-18T23:19:15.909Z,20.37
2019-01-18T23:21:42.602Z,21.77
2019-01-18T23:24:09.301Z,22.82
2019-01-18T23:26:36.063Z,21.65
2019-01-18T23:29:02.846Z,21.25
2019-01-18T23:31:29.938Z,19.55
2019-01-18T23:33:56.609Z,19.15
2019-01-18T23:36:23.709Z,20.10
2019-01-18T23:38:50.407Z,18.20
2019-01-18T23:41:17.159Z,20.57
2019-01-18T23:43:44.210Z,18.98
2019-01-18T23:46:11.287Z,20.32
2019-01-18T23:48:38.414Z,19.80
2019-01-18T23:51:05.475Z,17.85
2019-01-18T23:53:32.637Z,20.08
2019-01-18T23:55:59.762Z,19.52
2019-01-18T23:58:27.486Z,18.07
